createdAt,value
2022-10-02T00:02:43.809Z,11.50
2022-10-02T00:07:04.451Z,11.50
2022-10-02T00:11:23.257Z,11.50
2022-10-02T00:15:41.736Z,11.50
2022-10-02T00:19:57.604Z,11.50
2022-10-02T00:24:16.952Z,11.50
2022-10-02T00:28:36.771Z,11.50
2022-10-02T00:33:05.002Z,11.50
2022-10-02T00:37:28.638Z,11.50
2022-10-02T00:42:29.367Z,11.50
2022-10-02T00:46:51.438Z,11.50
2022-10-02T00:51:15.870Z,11.50
2022-10-02T00:55:45.276Z,11.50
2022-10-02T01:00:07.466Z,11.40
2022-10-02T01:04:29.672Z,11.50
2022-10-02T01:08:43.552Z,11.50
2022-10-02T01:12:59.233Z,11.40
2022-10-02T01:17:24.505Z,11.40
2022-10-02T01:21:43.501Z,11.30
2022-10-02T01:25:59.381Z,11.30
2022-10-02T01:30:17.638Z,11.30
2022-10-02T01:34:33.898Z,11.30
2022-10-02T01:38:49.025Z,11.20
2022-10-02T01:43:07.203Z,11.20
2022-10-02T01:47:27.350Z,11.10
2022-10-02T01:52:03.676Z,11.20
2022-10-02T01:56:24.095Z,11.30
2022-10-02T02:00:52.955Z,11.30
2022-10-02T02:05:11.364Z,11.50
2022-10-02T02:09:33.873Z,11.60
2022-10-02T02:13:50.525Z,11.70
2022-10-02T02:18:13.417Z,11.80
2022-10-02T02:22:31.114Z,11.90
2022-10-02T02:26:47.156Z,12.00
2022-10-02T02:31:03.029Z,12.00
2022-10-02T02:35:21.922Z,12.10
2022-10-02T02:39:40.636Z,12.10
2022-10-02T02:44:00.263Z,12.00
2022-10-02T02:48:20.490Z,11.90
2022-10-02T02:52:40.486Z,11.80
2022-10-02T02:56:57.590Z,11.80
2022-10-02T03:01:11.674Z,11.70
2022-10-02T03:05:26.267Z,11.60
2022-10-02T03:09:42.650Z,11.60
2022-10-02T03:14:03.423Z,11.50
2022-10-02T03:18:40.149Z,11.40
2022-10-02T03:23:02.204Z,11.40
2022-10-02T03:27:24.045Z,11.30
2022-10-02T03:31:38.127Z,11.20
2022-10-02T03:35:52.286Z,11.20
2022-10-02T03:40:08.395Z,11.20
2022-10-02T03:44:23.614Z,11.10
2022-10-02T03:48:37.618Z,11.10
2022-10-02T03:52:53.873Z,11.10
2022-10-02T03:57:12.616Z,11.10
2022-10-02T04:01:33.183Z,11.10
2022-10-02T04:05:52.696Z,11.10
2022-10-02T04:10:27.024Z,11.30
2022-10-02T04:14:48.402Z,11.50
2022-10-02T04:19:08.615Z,11.60
2022-10-02T04:23:27.083Z,11.70
2022-10-02T04:27:43.086Z,11.80
2022-10-02T04:32:08.439Z,11.80
2022-10-02T04:36:42.169Z,11.80
2022-10-02T04:41:06.844Z,11.80
2022-10-02T04:45:38.033Z,11.80
2022-10-02T04:50:06.873Z,11.70
2022-10-02T04:54:45.770Z,11.70
2022-10-02T04:59:20.557Z,11.70
2022-10-02T05:03:50.434Z,11.70
2022-10-02T05:08:23.507Z,11.70
2022-10-02T05:12:59.529Z,11.60
2022-10-02T05:17:30.010Z,11.40
2022-10-02T05:22:14.850Z,11.40
2022-10-02T05:26:46.299Z,11.30
2022-10-02T05:31:14.449Z,11.30
2022-10-02T05:35:49.737Z,11.30
2022-10-02T05:40:10.969Z,11.30
2022-10-02T05:44:30.943Z,11.30
2022-10-02T05:48:50.233Z,11.30
2022-10-02T05:53:10.168Z,11.20
2022-10-02T05:57:32.043Z,11.20
2022-10-02T06:01:48.276Z,11.20
2022-10-02T06:06:11.573Z,11.30
2022-10-02T06:10:31.565Z,11.40
2022-10-02T06:14:51.916Z,11.50
2022-10-02T06:19:12.335Z,11.60
2022-10-02T06:23:32.598Z,11.80
2022-10-02T06:27:51.998Z,12.00
2022-10-02T06:32:17.938Z,12.10
2022-10-02T06:37:04.529Z,12.20
2022-10-02T06:41:29.413Z,12.60
2022-10-02T06:45:53.172Z,14.00
2022-10-02T06:50:24.714Z,15.70
2022-10-02T06:54:55.051Z,17.50
2022-10-02T06:59:25.600Z,18.70
2022-10-02T07:04:15.040Z,19.40
2022-10-02T07:08:45.771Z,20.20
2022-10-02T07:13:27.125Z,21.30
2022-10-02T07:17:54.075Z,22.10
2022-10-02T07:22:43.798Z,21.60
2022-10-02T07:27:04.350Z,20.50
2022-10-02T07:31:25.427Z,19.30
2022-10-02T07:35:46.632Z,18.50
2022-10-02T07:40:18.315Z,18.40
2022-10-02T07:44:53.251Z,19.60
2022-10-02T07:49:23.124Z,20.90
2022-10-02T07:53:41.406Z,21.80
2022-10-02T07:58:01.694Z,22.70
2022-10-02T08:02:25.216Z,23.00
2022-10-02T08:06:39.947Z,22.00
2022-10-02T08:11:02.790Z,21.00
2022-10-02T08:15:21.226Z,20.10
2022-10-02T08:19:40.557Z,19.30
2022-10-02T08:23:59.952Z,18.80
2022-10-02T08:28:21.086Z,18.70
2022-10-02T08:32:37.849Z,18.80
2022-10-02T08:37:19.492Z,18.80
2022-10-02T08:42:05.084Z,18.60
2022-10-02T08:47:04.123Z,18.10
2022-10-02T08:52:05.973Z,17.80
2022-10-02T08:56:32.027Z,17.80
2022-10-02T09:00:58.949Z,17.70
2022-10-02T09:05:48.530Z,17.50
2022-10-02T09:10:50.427Z,17.30
2022-10-02T09:15:17.274Z,17.30
2022-10-02T09:19:42.671Z,17.50
2022-10-02T09:24:27.452Z,17.60
2022-10-02T09:29:10.713Z,17.70
2022-10-02T09:34:01.859Z,17.80
2022-10-02T09:38:42.207Z,18.00
2022-10-02T09:43:52.263Z,18.10
2022-10-02T09:48:51.672Z,18.40
2022-10-02T09:53:38.316Z,18.50
2022-10-02T09:58:24.507Z,18.20
2022-10-02T10:03:11.821Z,17.90
2022-10-02T10:08:00.353Z,18.00
2022-10-02T10:12:56.069Z,18.50
2022-10-02T10:18:00.535Z,18.90
2022-10-02T10:22:43.792Z,19.10
2022-10-02T10:27:38.946Z,19.30
2022-10-02T10:32:32.028Z,19.50
2022-10-02T10:37:15.212Z,20.40
2022-10-02T10:41:55.970Z,21.30
2022-10-02T10:46:26.431Z,22.30
2022-10-02T10:51:00.492Z,23.00
2022-10-02T10:55:20.361Z,23.20
2022-10-02T11:00:10.141Z,23.10
2022-10-02T11:04:45.895Z,23.10
2022-10-02T11:09:26.824Z,22.90
2022-10-02T11:13:57.652Z,22.70
2022-10-02T11:18:44.430Z,22.60
2022-10-02T11:23:37.158Z,22.70
2022-10-02T11:28:37.529Z,22.40
2022-10-02T11:33:25.065Z,21.80
2022-10-02T11:38:04.256Z,21.20
2022-10-02T11:42:56.069Z,21.00
2022-10-02T11:47:28.809Z,21.00
2022-10-02T11:52:11.676Z,21.20
2022-10-02T11:56:47.141Z,21.40
2022-10-02T12:01:14.997Z,21.40
2022-10-02T12:05:48.634Z,21.40
2022-10-02T12:10:27.747Z,21.10
2022-10-02T12:14:49.754Z,20.80
2022-10-02T12:19:20.925Z,20.30
2022-10-02T12:24:06.582Z,20.00
2022-10-02T12:28:33.468Z,19.70
2022-10-02T12:32:58.354Z,19.70
2022-10-02T12:37:19.671Z,19.60
2022-10-02T12:41:53.682Z,19.60
2022-10-02T12:46:29.351Z,19.70
2022-10-02T12:51:17.207Z,19.70
2022-10-02T12:56:04.681Z,19.60
2022-10-02T13:00:21.536Z,19.50
2022-10-02T13:05:14.268Z,19.50
2022-10-02T13:09:39.966Z,19.30
2022-10-02T13:14:26.424Z,19.20
2022-10-02T13:19:03.430Z,19.20
2022-10-02T13:23:26.132Z,19.10
2022-10-02T13:27:49.608Z,19.20
2022-10-02T13:32:20.060Z,19.20
2022-10-02T13:36:45.862Z,19.40
2022-10-02T13:41:14.398Z,19.50
2022-10-02T13:45:35.168Z,19.40
2022-10-02T13:50:06.054Z,19.30
2022-10-02T13:54:44.422Z,19.10
2022-10-02T13:59:14.687Z,18.90
2022-10-02T14:03:43.364Z,18.70
2022-10-02T14:08:16.633Z,18.50
2022-10-02T14:12:42.030Z,18.30
2022-10-02T14:17:05.007Z,18.10
2022-10-02T14:21:31.504Z,18.00
2022-10-02T14:26:00.244Z,17.80
2022-10-02T14:30:20.575Z,17.70
2022-10-02T14:34:53.252Z,17.70
2022-10-02T14:39:24.560Z,17.70
2022-10-02T14:44:11.184Z,17.70
2022-10-02T14:48:49.563Z,17.70
2022-10-02T14:53:43.872Z,17.60
2022-10-02T14:58:18.578Z,17.50
2022-10-02T15:02:59.771Z,17.50
2022-10-02T15:07:15.692Z,17.40
2022-10-02T15:11:55.254Z,17.40
2022-10-02T15:16:36.666Z,17.40
2022-10-02T15:20:59.542Z,17.40
2022-10-02T15:25:27.687Z,17.60
2022-10-02T15:29:53.611Z,17.60
2022-10-02T15:34:21.390Z,17.50
2022-10-02T15:38:53.773Z,17.40
2022-10-02T15:43:34.844Z,17.20
2022-10-02T15:48:21.214Z,17.00
2022-10-02T15:52:44.250Z,16.80
2022-10-02T15:57:22.843Z,16.70
2022-10-02T16:01:48.637Z,16.60
2022-10-02T16:06:13.869Z,16.50
2022-10-02T16:10:39.033Z,16.40
2022-10-02T16:15:04.183Z,16.30
2022-10-02T16:19:28.915Z,16.10
2022-10-02T16:24:09.412Z,16.00
2022-10-02T16:28:36.787Z,15.90
2022-10-02T16:33:19.483Z,15.80
2022-10-02T16:37:42.016Z,15.80
2022-10-02T16:42:03.222Z,15.60
2022-10-02T16:46:24.617Z,15.50
2022-10-02T16:50:54.261Z,15.50
2022-10-02T16:55:20.246Z,15.40
2022-10-02T16:59:44.881Z,15.20
2022-10-02T17:04:25.663Z,15.10
2022-10-02T17:08:44.509Z,15.00
2022-10-02T17:13:07.636Z,14.90
2022-10-02T17:17:27.569Z,14.70
2022-10-02T17:21:48.926Z,14.60
2022-10-02T17:26:08.829Z,14.40
2022-10-02T17:30:27.060Z,14.20
2022-10-02T17:34:49.223Z,14.00
2022-10-02T17:39:39.254Z,13.80
2022-10-02T17:44:01.589Z,13.60
2022-10-02T17:48:34.976Z,13.40
2022-10-02T17:53:16.835Z,13.30
2022-10-02T17:57:48.146Z,13.20
2022-10-02T18:02:14.776Z,13.10
2022-10-02T18:06:38.125Z,13.00
2022-10-02T18:11:04.151Z,12.90
2022-10-02T18:15:31.857Z,12.90
2022-10-02T18:19:56.809Z,12.90
2022-10-02T18:24:43.053Z,12.80
2022-10-02T18:29:31.902Z,12.80
2022-10-02T18:34:41.442Z,12.80
2022-10-02T18:39:00.993Z,12.80
2022-10-02T18:43:37.173Z,12.80
2022-10-02T18:48:03.139Z,12.80
2022-10-02T18:52:33.552Z,12.80
2022-10-02T18:56:56.630Z,12.90
2022-10-02T19:01:37.537Z,12.90
2022-10-02T19:05:57.149Z,13.00
2022-10-02T19:10:26.508Z,13.00
2022-10-02T19:14:45.633Z,13.10
2022-10-02T19:19:09.885Z,13.20
2022-10-02T19:23:32.879Z,13.30
2022-10-02T19:27:54.435Z,13.30
2022-10-02T19:32:18.411Z,13.30
2022-10-02T19:36:35.501Z,13.20
2022-10-02T19:40:54.449Z,13.20
2022-10-02T19:45:25.491Z,13.10
2022-10-02T19:49:41.533Z,13.10
2022-10-02T19:54:01.363Z,13.00
2022-10-02T19:58:22.393Z,12.90
2022-10-02T20:02:41.483Z,12.80
2022-10-02T20:06:59.095Z,12.70
2022-10-02T20:11:21.523Z,12.50
2022-10-02T20:16:04.894Z,12.40
2022-10-02T20:20:20.762Z,12.30
2022-10-02T20:24:42.821Z,12.20
2022-10-02T20:29:01.453Z,12.10
2022-10-02T20:33:24.678Z,12.10
2022-10-02T20:37:43.115Z,12.00
2022-10-02T20:42:00.736Z,12.00
2022-10-02T20:46:41.408Z,11.90
2022-10-02T20:51:06.433Z,11.80
2022-10-02T20:55:30.275Z,11.80
2022-10-02T21:00:15.655Z,11.80
2022-10-02T21:04:54.627Z,11.80
2022-10-02T21:09:42.479Z,11.90
2022-10-02T21:14:45.665Z,11.90
2022-10-02T21:19:15.971Z,12.00
2022-10-02T21:23:58.202Z,11.90
2022-10-02T21:28:41.334Z,11.80
2022-10-02T21:33:06.564Z,11.80
2022-10-02T21:37:28.225Z,11.80
2022-10-02T21:42:36.623Z,11.80
2022-10-02T21:47:24.681Z,11.70
2022-10-02T21:52:18.172Z,11.70
2022-10-02T21:57:05.198Z,11.60
2022-10-02T22:02:08.339Z,11.50
2022-10-02T22:06:38.480Z,11.50
2022-10-02T22:11:02.839Z,11.50
2022-10-02T22:15:27.042Z,11.40
2022-10-02T22:19:59.370Z,11.40
2022-10-02T22:24:32.670Z,11.40
2022-10-02T22:28:49.738Z,11.30
2022-10-02T22:33:17.930Z,11.30
2022-10-02T22:37:55.077Z,11.40
2022-10-02T22:42:14.707Z,11.40
2022-10-02T22:46:41.213Z,11.40
2022-10-02T22:50:59.317Z,11.40
2022-10-02T22:55:19.253Z,11.40
2022-10-02T22:59:44.372Z,11.40
2022-10-02T23:04:04.721Z,11.40
2022-10-02T23:08:26.778Z,11.40
2022-10-02T23:12:50.740Z,11.50
2022-10-02T23:17:13.599Z,11.50
2022-10-02T23:21:33.993Z,11.50
2022-10-02T23:25:53.449Z,11.50
2022-10-02T23:30:12.547Z,11.40
2022-10-02T23:34:36.496Z,11.40
2022-10-02T23:38:56.513Z,11.30
2022-10-02T23:43:15.089Z,11.20
2022-10-02T23:47:41.544Z,11.20
2022-10-02T23:52:06.086Z,11.10
2022-10-02T23:56:47.120Z,11.10
